PWSweather.com
Personal Weather Stations
Station Observations
KPAMECHA5
Mechanicsburg, PA 17050

Mechanicsburg, PA 17050

Lat: 40.21531, Lon: -77.0395

Elevation: 430

Station Type: Davis 6322

http://MechanicsburgWeather.com

Latest ConditionsUpdated 7:20:04 PM EDT Tuesday, Apr 21, 2015
Currently Today's Max Today's Min Today's Average
Temperature 59.3°F15.2°C 63.6°F17.6°C 50.9°F10.5°C 57.6°F14.2°C
Dew Point 36.2°F2.3°C 56.4°F13.6°C 35.5°F1.9°C 44.5°F6.9°C
Winds 3.2 mph WSW5.1 kmh WSW 9.9 mph SSW15.9 kmh SSW - 3.1 mph 5.0 kmh
Wind Gusts 6.0 mph9.7 kmh 16.0 mph25.7 kmh - -
Humidity 42% 99% 37% 65%
Pressure 29.67 in1004.7 mb 29.69 in1005.4 mb 29.51 in999.3 mb -
Precipitation - 0.18 in4.6 mm - -
Hour Temp Dew Point Humidity Winds Wind Gusts Pressure Precip Precip Rate Daily Precip Total
07:20 PM 59.3°F15.2°C 36.2°F2.3°C 42% 3.2 mph WSW5.1 kmh WSW 6.0 mph9.7 kmh 29.67 in1004.7 mb - 0.00 in0.0 mm 0.18 in4.6 mm
07:10 PM 59.8°F15.4°C 36.6°F2.6°C 42% 0.4 mph WSW0.6 kmh WSW 4.0 mph6.4 kmh 29.67 in1004.7 mb - 0.00 in0.0 mm 0.18 in4.6 mm
07:00 PM 60.1°F15.6°C 35.7°F2.1°C 40% 3.8 mph SW6.1 kmh SW 5.0 mph8.0 kmh 29.67 in1004.7 mb - 0.00 in0.0 mm 0.18 in4.6 mm
06:50 PM 60.5°F15.8°C 36.7°F2.6°C 41% 3.7 mph SW6.0 kmh SW 11.0 mph17.7 kmh 29.67 in1004.7 mb - 0.00 in0.0 mm 0.18 in4.6 mm
06:40 PM 61.0°F16.1°C 36.5°F2.5°C 40% 7.3 mph SW11.7 kmh SW 9.0 mph14.5 kmh 29.67 in1004.7 mb - 0.00 in0.0 mm 0.18 in4.6 mm
06:30 PM 60.9°F16.1°C 36.4°F2.4°C 40% 4.2 mph WSW6.8 kmh WSW 7.0 mph11.3 kmh 29.67 in1004.7 mb - 0.00 in0.0 mm 0.18 in4.6 mm
06:20 PM 60.7°F15.9°C 36.2°F2.3°C 40% 3.0 mph WSW4.8 kmh WSW 7.0 mph11.3 kmh 29.67 in1004.7 mb - 0.00 in0.0 mm 0.18 in4.6 mm
06:10 PM 60.5°F15.8°C 36.7°F2.6°C 41% 5.5 mph SSW8.9 kmh SSW 9.0 mph14.5 kmh 29.67 in1004.7 mb - 0.00 in0.0 mm 0.18 in4.6 mm
06:00 PM 61.0°F16.1°C 36.5°F2.5°C 40% 6.0 mph S9.7 kmh S 11.0 mph17.7 kmh 29.67 in1004.7 mb - 0.00 in0.0 mm 0.18 in4.6 mm
05:50 PM 61.7°F16.5°C 37.1°F2.8°C 40% 5.6 mph WSW9.0 kmh WSW 7.0 mph11.3 kmh 29.67 in1004.7 mb - 0.00 in0.0 mm 0.18 in4.6 mm
05:40 PM 62.1°F16.7°C 38.1°F3.4°C 41% 3.3 mph SW5.3 kmh SW 7.0 mph11.3 kmh 29.67 in1004.7 mb - 0.00 in0.0 mm 0.18 in4.6 mm
05:30 PM 61.8°F16.6°C 37.8°F3.2°C 41% 6.4 mph SSE10.3 kmh SSE 10.0 mph16.1 kmh 29.67 in1004.7 mb - 0.00 in0.0 mm 0.18 in4.6 mm
05:20 PM 61.5°F16.4°C 36.3°F2.4°C 39% 5.3 mph W8.5 kmh W 10.0 mph16.1 kmh 29.67 in1004.7 mb - 0.00 in0.0 mm 0.18 in4.6 mm
05:10 PM 62.1°F16.7°C 35.5°F1.9°C 37% 6.1 mph NNW9.8 kmh NNW 11.0 mph17.7 kmh 29.66 in1004.4 mb - 0.00 in0.0 mm 0.18 in4.6 mm
05:00 PM 63.0°F17.2°C 36.9°F2.7°C 38% 4.4 mph NW7.1 kmh NW 9.0 mph14.5 kmh 29.66 in1004.4 mb - 0.00 in0.0 mm 0.18 in4.6 mm
04:50 PM 63.6°F17.6°C 38.2°F3.4°C 39% 5.6 mph N9.0 kmh N 13.0 mph20.9 kmh 29.65 in1004.1 mb - 0.00 in0.0 mm 0.18 in4.6 mm
04:40 PM 63.4°F17.4°C 38.0°F3.3°C 39% 4.6 mph N7.4 kmh N 8.0 mph12.9 kmh 29.65 in1004.1 mb - 0.00 in0.0 mm 0.18 in4.6 mm
04:30 PM 63.2°F17.3°C 37.8°F3.2°C 39% 5.3 mph SW8.5 kmh SW 8.0 mph12.9 kmh 29.65 in1004.1 mb - 0.00 in0.0 mm 0.18 in4.6 mm
04:20 PM 63.4°F17.4°C 36.6°F2.6°C 37% 9.9 mph SSW15.9 kmh SSW 15.0 mph24.1 kmh 29.65 in1004.1 mb - 0.00 in0.0 mm 0.18 in4.6 mm
04:10 PM 63.6°F17.6°C 39.5°F4.2°C 41% 2.6 mph SW4.2 kmh SW 10.0 mph16.1 kmh 29.65 in1004.1 mb - 0.00 in0.0 mm 0.18 in4.6 mm
04:00 PM 63.2°F17.3°C 39.1°F3.9°C 41% 4.3 mph WSW6.9 kmh WSW 7.0 mph11.3 kmh 29.64 in1003.7 mb - 0.00 in0.0 mm 0.18 in4.6 mm
03:50 PM 61.9°F16.6°C 37.9°F3.3°C 41% 0.5 mph W0.8 kmh W 6.0 mph9.7 kmh 29.64 in1003.7 mb - 0.00 in0.0 mm 0.18 in4.6 mm
03:40 PM 62.2°F16.8°C 37.6°F3.1°C 40% 5.5 mph NW8.9 kmh NW 9.0 mph14.5 kmh 29.64 in1003.7 mb - 0.00 in0.0 mm 0.18 in4.6 mm
03:30 PM 62.0°F16.7°C 37.4°F3.0°C 40% 2.8 mph SSW4.5 kmh SSW 8.0 mph12.9 kmh 29.64 in1003.7 mb - 0.00 in0.0 mm 0.18 in4.6 mm
03:20 PM 62.2°F16.8°C 40.0°F4.4°C 44% 3.7 mph E6.0 kmh E 6.0 mph9.7 kmh 29.64 in1003.7 mb - 0.00 in0.0 mm 0.18 in4.6 mm
03:10 PM 62.4°F16.9°C 39.0°F3.9°C 42% 7.1 mph WSW11.4 kmh WSW 14.0 mph22.5 kmh 29.64 in1003.7 mb - 0.00 in0.0 mm 0.18 in4.6 mm
03:00 PM 62.9°F17.2°C 39.4°F4.1°C 42% 4.5 mph SW7.2 kmh SW 8.0 mph12.9 kmh 29.65 in1004.1 mb - 0.00 in0.0 mm 0.18 in4.6 mm
02:50 PM 62.5°F16.9°C 40.9°F4.9°C 45% 1.8 mph NNE2.9 kmh NNE 3.0 mph4.8 kmh 29.65 in1004.1 mb - 0.00 in0.0 mm 0.18 in4.6 mm
02:40 PM 62.4°F16.9°C 40.2°F4.6°C 44% 2.7 mph NNW4.3 kmh NNW 5.0 mph8.0 kmh 29.66 in1004.4 mb - 0.00 in0.0 mm 0.18 in4.6 mm
02:30 PM 61.8°F16.6°C 39.6°F4.2°C 44% 2.7 mph N4.3 kmh N 8.0 mph12.9 kmh 29.65 in1004.1 mb - 0.00 in0.0 mm 0.18 in4.6 mm
02:20 PM 62.0°F16.7°C 39.3°F4.1°C 43% 6.2 mph SW10.0 kmh SW 9.0 mph14.5 kmh 29.66 in1004.4 mb - 0.00 in0.0 mm 0.18 in4.6 mm
02:10 PM 62.2°F16.8°C 40.6°F4.8°C 45% 5.4 mph SW8.7 kmh SW 11.0 mph17.7 kmh 29.67 in1004.7 mb - 0.00 in0.0 mm 0.18 in4.6 mm
02:00 PM 61.3°F16.3°C 39.2°F4.0°C 44% 4.5 mph WNW7.2 kmh WNW 10.0 mph16.1 kmh 29.67 in1004.7 mb - 0.00 in0.0 mm 0.18 in4.6 mm
01:50 PM 60.5°F15.8°C 39.6°F4.2°C 46% 5.2 mph SW8.4 kmh SW 8.0 mph12.9 kmh 29.67 in1004.7 mb - 0.00 in0.0 mm 0.18 in4.6 mm
01:40 PM 60.6°F15.9°C 40.2°F4.6°C 47% 6.2 mph W10.0 kmh W 9.0 mph14.5 kmh 29.67 in1004.7 mb - 0.00 in0.0 mm 0.18 in4.6 mm
01:30 PM 61.0°F16.1°C 39.5°F4.2°C 45% 4.4 mph WSW7.1 kmh WSW 8.0 mph12.9 kmh 29.67 in1004.7 mb - 0.00 in0.0 mm 0.18 in4.6 mm
01:20 PM 60.2°F15.7°C 39.9°F4.4°C 47% 2.1 mph WSW3.4 kmh WSW 5.0 mph8.0 kmh 29.67 in1004.7 mb - 0.00 in0.0 mm 0.18 in4.6 mm
01:10 PM 59.7°F15.4°C 40.5°F4.7°C 49% 7.0 mph SW11.3 kmh SW 13.0 mph20.9 kmh 29.68 in1005.1 mb - 0.00 in0.0 mm 0.18 in4.6 mm
01:00 PM 58.6°F14.8°C 39.5°F4.2°C 49% 3.0 mph WSW4.8 kmh WSW 6.0 mph9.7 kmh 29.68 in1005.1 mb - 0.00 in0.0 mm 0.18 in4.6 mm
12:50 PM 58.6°F14.8°C 39.0°F3.9°C 48% 1.9 mph W3.1 kmh W 11.0 mph17.7 kmh 29.68 in1005.1 mb - 0.00 in0.0 mm 0.18 in4.6 mm
12:40 PM 58.8°F14.9°C 39.7°F4.3°C 49% 5.7 mph NNW9.2 kmh NNW 10.0 mph16.1 kmh 29.68 in1005.1 mb - 0.00 in0.0 mm 0.18 in4.6 mm
12:30 PM 58.9°F14.9°C 39.2°F4.0°C 48% 5.1 mph SW8.2 kmh SW 12.0 mph19.3 kmh 29.68 in1005.1 mb - 0.00 in0.0 mm 0.18 in4.6 mm
12:20 PM 58.6°F14.8°C 40.0°F4.4°C 50% 3.1 mph WSW5.0 kmh WSW 9.0 mph14.5 kmh 29.68 in1005.1 mb - 0.00 in0.0 mm 0.18 in4.6 mm
12:10 PM 58.9°F14.9°C 39.2°F4.0°C 48% 4.9 mph NW7.9 kmh NW 9.0 mph14.5 kmh 29.68 in1005.1 mb - 0.00 in0.0 mm 0.18 in4.6 mm
12:00 PM 59.0°F15.0°C 39.3°F4.1°C 48% 4.4 mph NW7.1 kmh NW 8.0 mph12.9 kmh 29.68 in1005.1 mb - 0.00 in0.0 mm 0.18 in4.6 mm
11:50 AM 59.0°F15.0°C 39.9°F4.4°C 49% 8.1 mph W13.0 kmh W 13.0 mph20.9 kmh 29.69 in1005.4 mb - 0.00 in0.0 mm 0.18 in4.6 mm
11:40 AM 59.0°F15.0°C 39.3°F4.1°C 48% 4.8 mph W7.7 kmh W 6.0 mph9.7 kmh 29.69 in1005.4 mb - 0.00 in0.0 mm 0.18 in4.6 mm
11:30 AM 59.1°F15.1°C 39.9°F4.4°C 49% 7.8 mph SW12.6 kmh SW 13.0 mph20.9 kmh 29.69 in1005.4 mb - 0.00 in0.0 mm 0.18 in4.6 mm
11:20 AM 59.0°F15.0°C 40.4°F4.7°C 50% 6.9 mph SW11.1 kmh SW 8.0 mph12.9 kmh 29.69 in1005.4 mb - 0.00 in0.0 mm 0.18 in4.6 mm
11:10 AM 58.8°F14.9°C 39.7°F4.3°C 49% 4.7 mph WNW7.6 kmh WNW 7.0 mph11.3 kmh 29.69 in1005.4 mb - 0.00 in0.0 mm 0.18 in4.6 mm
11:00 AM 59.0°F15.0°C 40.4°F4.7°C 50% 4.0 mph WSW6.4 kmh WSW 12.0 mph19.3 kmh 29.69 in1005.4 mb - 0.00 in0.0 mm 0.18 in4.6 mm
10:50 AM 58.1°F14.5°C 39.0°F3.9°C 49% 7.1 mph SW11.4 kmh SW 14.0 mph22.5 kmh 29.69 in1005.4 mb - 0.00 in0.0 mm 0.18 in4.6 mm
10:40 AM 57.7°F14.3°C 39.2°F4.0°C 50% 5.6 mph WSW9.0 kmh WSW 14.0 mph22.5 kmh 29.68 in1005.1 mb - 0.00 in0.0 mm 0.18 in4.6 mm
10:30 AM 57.8°F14.3°C 37.1°F2.8°C 46% 7.2 mph NW11.6 kmh NW 15.0 mph24.1 kmh 29.68 in1005.1 mb - 0.00 in0.0 mm 0.18 in4.6 mm
10:20 AM 58.0°F14.4°C 39.5°F4.2°C 50% 5.4 mph WNW8.7 kmh WNW 15.0 mph24.1 kmh 29.68 in1005.1 mb - 0.00 in0.0 mm 0.18 in4.6 mm
10:10 AM 58.0°F14.4°C 41.0°F5.0°C 53% 1.7 mph NW2.7 kmh NW 5.0 mph8.0 kmh 29.68 in1005.1 mb - 0.00 in0.0 mm 0.18 in4.6 mm
10:00 AM 57.8°F14.3°C 42.2°F5.7°C 56% 8.2 mph SSW13.2 kmh SSW 16.0 mph25.7 kmh 29.68 in1005.1 mb - 0.00 in0.0 mm 0.18 in4.6 mm
09:50 AM 57.3°F14.1°C 43.5°F6.4°C 60% 3.1 mph NNW5.0 kmh NNW 7.0 mph11.3 kmh 29.68 in1005.1 mb - 0.00 in0.0 mm 0.18 in4.6 mm
09:40 AM 56.8°F13.8°C 42.6°F5.9°C 59% 3.9 mph N6.3 kmh N 12.0 mph19.3 kmh 29.67 in1004.7 mb - 0.00 in0.0 mm 0.18 in4.6 mm
09:30 AM 56.4°F13.6°C 41.8°F5.4°C 58% 3.9 mph W6.3 kmh W 10.0 mph16.1 kmh 29.66 in1004.4 mb - 0.00 in0.0 mm 0.18 in4.6 mm
09:20 AM 55.9°F13.3°C 43.1°F6.2°C 62% 3.9 mph WNW6.3 kmh WNW 10.0 mph16.1 kmh 29.66 in1004.4 mb - 0.00 in0.0 mm 0.18 in4.6 mm
09:10 AM 55.5°F13.1°C 43.1°F6.2°C 63% 4.0 mph NW6.4 kmh NW 7.0 mph11.3 kmh 29.67 in1004.7 mb - 0.00 in0.0 mm 0.18 in4.6 mm
09:00 AM 55.3°F12.9°C 44.5°F6.9°C 67% 4.6 mph W7.4 kmh W 13.0 mph20.9 kmh 29.66 in1004.4 mb - 0.00 in0.0 mm 0.18 in4.6 mm
08:50 AM 54.3°F12.4°C 46.2°F7.9°C 74% 1.8 mph W2.9 kmh W 5.0 mph8.0 kmh 29.66 in1004.4 mb - 0.00 in0.0 mm 0.18 in4.6 mm
08:40 AM 53.3°F11.8°C 45.6°F7.6°C 75% 1.1 mph WSW1.8 kmh WSW 5.0 mph8.0 kmh 29.66 in1004.4 mb - 0.00 in0.0 mm 0.18 in4.6 mm
08:30 AM 53.2°F11.8°C 45.8°F7.7°C 76% 2.2 mph WSW3.5 kmh WSW 5.0 mph8.0 kmh 29.66 in1004.4 mb - 0.00 in0.0 mm 0.18 in4.6 mm
08:20 AM 53.1°F11.7°C 45.7°F7.6°C 76% 0.3 mph WSW0.5 kmh WSW 5.0 mph8.0 kmh 29.66 in1004.4 mb - 0.00 in0.0 mm 0.18 in4.6 mm
08:10 AM 53.1°F11.7°C 46.1°F7.8°C 77% Calm Calm -- 29.65 in1004.1 mb - 0.00 in0.0 mm 0.18 in4.6 mm
08:00 AM 52.7°F11.5°C 45.3°F7.4°C 76% 0.3 mph NW0.5 kmh NW 4.0 mph6.4 kmh 29.65 in1004.1 mb - 0.00 in0.0 mm 0.18 in4.6 mm
07:50 AM 51.9°F11.1°C 44.9°F7.2°C 77% 0.1 mph WSW0.2 kmh WSW -- 29.65 in1004.1 mb - 0.00 in0.0 mm 0.18 in4.6 mm
07:40 AM 51.5°F10.8°C 44.9°F7.2°C 78% Calm Calm 4.0 mph6.4 kmh 29.65 in1004.1 mb - 0.00 in0.0 mm 0.18 in4.6 mm
07:30 AM 51.0°F10.6°C 44.7°F7.1°C 79% 0.1 mph SW0.2 kmh SW 1.0 mph1.6 kmh 29.65 in1004.1 mb - 0.00 in0.0 mm 0.18 in4.6 mm
07:20 AM 50.9°F10.5°C 44.7°F7.1°C 79% Calm Calm -- 29.65 in1004.1 mb - 0.00 in0.0 mm 0.18 in4.6 mm
07:10 AM 51.1°F10.6°C 44.8°F7.1°C 79% 0.2 mph W0.3 kmh W 4.0 mph6.4 kmh 29.65 in1004.1 mb - 0.00 in0.0 mm 0.18 in4.6 mm
07:00 AM 51.3°F10.7°C 45.0°F7.2°C 79% 0.2 mph W0.3 kmh W 1.0 mph1.6 kmh 29.64 in1003.7 mb - 0.00 in0.0 mm 0.18 in4.6 mm
06:50 AM 51.4°F10.8°C 44.8°F7.1°C 78% 0.1 mph WNW0.2 kmh WNW 1.0 mph1.6 kmh 29.64 in1003.7 mb - 0.00 in0.0 mm 0.18 in4.6 mm
06:40 AM 51.7°F10.9°C 45.1°F7.3°C 78% 0.1 mph SW0.2 kmh SW 2.0 mph3.2 kmh 29.64 in1003.7 mb - 0.00 in0.0 mm 0.18 in4.6 mm
06:30 AM 52.0°F11.1°C 45.4°F7.4°C 78% Calm Calm 4.0 mph6.4 kmh 29.64 in1003.7 mb - 0.00 in0.0 mm 0.18 in4.6 mm
06:20 AM 52.3°F11.3°C 45.3°F7.4°C 77% 0.6 mph WSW1.0 kmh WSW 2.0 mph3.2 kmh 29.64 in1003.7 mb - 0.00 in0.0 mm 0.18 in4.6 mm
06:10 AM 52.6°F11.4°C 45.6°F7.6°C 77% Calm Calm -- 29.63 in1003.4 mb - 0.00 in0.0 mm 0.18 in4.6 mm
06:00 AM 52.9°F11.6°C 45.9°F7.7°C 77% 0.3 mph W0.5 kmh W 1.0 mph1.6 kmh 29.62 in1003.0 mb - 0.00 in0.0 mm 0.18 in4.6 mm
05:50 AM 53.2°F11.8°C 46.2°F7.9°C 77% Calm Calm 1.0 mph1.6 kmh 29.62 in1003.0 mb - 0.00 in0.0 mm 0.18 in4.6 mm
05:40 AM 53.4°F11.9°C 46.0°F7.8°C 76% 0.7 mph SW1.1 kmh SW -- 29.62 in1003.0 mb - 0.00 in0.0 mm 0.18 in4.6 mm
05:30 AM 53.7°F12.1°C 47.3°F8.5°C 79% 3.3 mph NNE5.3 kmh NNE 6.0 mph9.7 kmh 29.61 in1002.7 mb - 0.00 in0.0 mm 0.18 in4.6 mm
05:20 AM 54.2°F12.3°C 47.8°F8.8°C 79% 1.6 mph WSW2.6 kmh WSW 4.0 mph6.4 kmh 29.60 in1002.4 mb - 0.01 in0.3 mm 0.18 in4.6 mm
05:10 AM 55.0°F12.8°C 48.9°F9.4°C 80% 4.4 mph NW7.1 kmh NW 10.0 mph16.1 kmh 29.60 in1002.4 mb - 0.00 in0.0 mm 0.17 in4.3 mm
05:00 AM 55.5°F13.1°C 50.1°F10.1°C 82% 4.6 mph NW7.4 kmh NW 9.0 mph14.5 kmh 29.59 in1002.0 mb - 0.00 in0.0 mm 0.17 in4.3 mm
04:50 AM 55.5°F13.1°C 50.1°F10.1°C 82% 8.9 mph WNW14.3 kmh WNW 12.0 mph19.3 kmh 29.57 in1001.4 mb - 0.00 in0.0 mm 0.17 in4.3 mm
04:40 AM 55.2°F12.9°C 50.8°F10.4°C 85% 6.8 mph W10.9 kmh W 10.0 mph16.1 kmh 29.57 in1001.4 mb - 0.00 in0.0 mm 0.17 in4.3 mm
04:30 AM 54.9°F12.7°C 51.4°F10.8°C 88% 5.2 mph NNW8.4 kmh NNW 13.0 mph20.9 kmh 29.56 in1001.0 mb - 0.00 in0.0 mm 0.17 in4.3 mm
04:20 AM 54.4°F12.4°C 51.8°F11.0°C 91% 6.0 mph NNW9.7 kmh NNW 11.0 mph17.7 kmh 29.56 in1001.0 mb - 0.00 in0.0 mm 0.17 in4.3 mm
04:10 AM 54.4°F12.4°C 52.4°F11.3°C 93% Calm Calm -- 29.55 in1000.7 mb - 0.00 in0.0 mm 0.17 in4.3 mm
03:50 AM 54.2°F12.3°C 53.1°F11.7°C 96% 1.1 mph NW1.8 kmh NW 5.0 mph8.0 kmh 29.55 in1000.7 mb - 0.00 in0.0 mm 0.17 in4.3 mm
03:40 AM 54.4°F12.4°C 53.9°F12.2°C 98% 0.9 mph NW1.4 kmh NW 3.0 mph4.8 kmh 29.55 in1000.7 mb - 0.01 in0.3 mm 0.17 in4.3 mm
03:30 AM 55.4°F13.0°C 55.1°F12.8°C 99% 2.1 mph W3.4 kmh W 5.0 mph8.0 kmh 29.55 in1000.7 mb - 0.00 in0.0 mm 0.16 in4.1 mm
03:20 AM 56.1°F13.4°C 55.8°F13.2°C 99% 1.0 mph WNW1.6 kmh WNW 4.0 mph6.4 kmh 29.54 in1000.3 mb - 0.00 in0.0 mm 0.16 in4.1 mm
03:10 AM 56.3°F13.5°C 56.0°F13.3°C 99% 1.8 mph N2.9 kmh N 4.0 mph6.4 kmh 29.54 in1000.3 mb - 0.00 in0.0 mm 0.16 in4.1 mm
03:00 AM 56.0°F13.3°C 55.7°F13.2°C 99% 0.9 mph SSW1.4 kmh SSW 4.0 mph6.4 kmh 29.54 in1000.3 mb - 0.00 in0.0 mm 0.16 in4.1 mm
02:50 AM 55.9°F13.3°C 55.6°F13.1°C 99% Calm Calm -- 29.52 in999.7 mb - 0.00 in0.0 mm 0.16 in4.1 mm
02:40 AM 56.0°F13.3°C 55.7°F13.2°C 99% Calm Calm -- 29.51 in999.3 mb - 0.00 in0.0 mm 0.16 in4.1 mm
02:30 AM 56.2°F13.4°C 55.9°F13.3°C 99% Calm Calm -- 29.51 in999.3 mb - 0.00 in0.0 mm 0.16 in4.1 mm
02:20 AM 56.4°F13.6°C 56.1°F13.4°C 99% Calm Calm -- 29.51 in999.3 mb - 0.00 in0.0 mm 0.16 in4.1 mm
02:10 AM 56.5°F13.6°C 56.2°F13.4°C 99% Calm Calm -- 29.52 in999.7 mb - 0.00 in0.0 mm 0.16 in4.1 mm
02:00 AM 56.5°F13.6°C 56.2°F13.4°C 99% Calm Calm -- 29.52 in999.7 mb - 0.00 in0.0 mm 0.16 in4.1 mm
01:50 AM 56.4°F13.6°C 56.1°F13.4°C 99% Calm Calm -- 29.52 in999.7 mb - 0.00 in0.0 mm 0.16 in4.1 mm
01:40 AM 56.5°F13.6°C 55.9°F13.3°C 98% Calm Calm -- 29.52 in999.7 mb - 0.00 in0.0 mm 0.16 in4.1 mm
01:30 AM 56.5°F13.6°C 56.0°F13.3°C 98% Calm Calm -- 29.51 in999.3 mb - 0.00 in0.0 mm 0.16 in4.1 mm
01:20 AM 56.6°F13.7°C 56.0°F13.3°C 98% Calm Calm -- 29.52 in999.7 mb - 0.00 in0.0 mm 0.16 in4.1 mm
01:10 AM 56.7°F13.7°C 56.4°F13.6°C 99% Calm Calm -- 29.52 in999.7 mb - 0.00 in0.0 mm 0.16 in4.1 mm
01:00 AM 56.8°F13.8°C 56.2°F13.4°C 98% Calm Calm -- 29.53 in1000.0 mb - 0.02 in0.5 mm 0.16 in4.1 mm
12:50 AM 56.9°F13.8°C 56.3°F13.5°C 98% 0.7 mph WNW1.1 kmh WNW 2.0 mph3.2 kmh 29.52 in999.7 mb - 0.01 in0.3 mm 0.14 in3.6 mm
12:40 AM 57.0°F13.9°C 56.4°F13.6°C 98% 0.6 mph SW1.0 kmh SW 1.0 mph1.6 kmh 29.54 in1000.3 mb - 0.01 in0.3 mm 0.13 in3.3 mm
12:30 AM 56.9°F13.8°C 56.3°F13.5°C 98% Calm Calm -- 29.53 in1000.0 mb - 0.06 in1.5 mm 0.12 in3.0 mm
12:20 AM 56.7°F13.7°C 56.1°F13.4°C 98% Calm Calm 1.0 mph1.6 kmh 29.53 in1000.0 mb - 0.05 in1.3 mm 0.07 in1.8 mm
12:10 AM 56.6°F13.7°C 56.0°F13.3°C 98% 0.1 mph SW0.2 kmh SW -- 29.52 in999.7 mb - 0.02 in0.5 mm 0.02 in0.5 mm
12:00 AM 56.5°F13.6°C 56.0°F13.3°C 98% 3.9 mph SW6.3 kmh SW 7.0 mph11.3 kmh 29.52 in999.7 mb - 0.03 in0.8 mm 0.03 in0.8 mm